sensor_id;sensor_type;location;lat;lon;timestamp;P1;durP1;ratioP1;P2;durP2;ratioP2
6467;SDS011;3267;48.794;9.928;2024-03-08T05:17:57;16.40;;;13.07;;
6467;SDS011;3267;48.794;9.928;2024-03-08T05:20:23;12.87;;;10.27;;
6467;SDS011;3267;48.794;9.928;2024-03-08T05:22:48;12.10;;;8.40;;
6467;SDS011;3267;48.794;9.928;2024-03-08T05:25:14;17.10;;;10.47;;
6467;SDS011;3267;48.794;9.928;2024-03-08T05:27:40;32.70;;;21.50;;
6467;SDS011;3267;48.794;9.928;2024-03-08T05:30:06;25.10;;;15.67;;
6467;SDS011;3267;48.794;9.928;2024-03-08T05:32:32;15.80;;;9.83;;
6467;SDS011;3267;48.794;9.928;2024-03-08T05:34:58;17.07;;;11.63;;
6467;SDS011;3267;48.794;9.928;2024-03-08T05:37:24;15.27;;;11.70;;
6467;SDS011;3267;48.794;9.928;2024-03-08T05:39:51;10.03;;;7.90;;
6467;SDS011;3267;48.794;9.928;2024-03-08T05:42:17;17.47;;;13.43;;
6467;SDS011;3267;48.794;9.928;2024-03-08T05:44:42;14.20;;;11.57;;
6467;SDS011;3267;48.794;9.928;2024-03-08T05:47:08;16.77;;;13.30;;
6467;SDS011;3267;48.794;9.928;2024-03-08T05:49:36;16.63;;;10.73;;
6467;SDS011;3267;48.794;9.928;2024-03-08T05:52:05;17.87;;;11.00;;
6467;SDS011;3267;48.794;9.928;2024-03-08T05:54:30;14.33;;;9.90;;
6467;SDS011;3267;48.794;9.928;2024-03-08T05:56:58;15.47;;;11.70;;
6467;SDS011;3267;48.794;9.928;2024-03-08T05:59:24;12.77;;;10.53;;
6467;SDS011;3267;48.794;9.928;2024-03-08T06:01:49;9.77;;;7.10;;
6467;SDS011;3267;48.794;9.928;2024-03-08T06:04:15;15.00;;;8.40;;
6467;SDS011;3267;48.794;9.928;2024-03-08T06:06:43;12.10;;;7.23;;
6467;SDS011;3267;48.794;9.928;2024-03-08T06:09:08;14.37;;;10.17;;
6467;SDS011;3267;48.794;9.928;2024-03-08T06:11:36;8.03;;;6.23;;
6467;SDS011;3267;48.794;9.928;2024-03-08T06:14:03;15.80;;;11.27;;
6467;SDS011;3267;48.794;9.928;2024-03-08T06:16:29;12.97;;;8.43;;
6467;SDS011;3267;48.794;9.928;2024-03-08T06:18:56;15.60;;;11.93;;
6467;SDS011;3267;48.794;9.928;2024-03-08T06:21:22;15.57;;;12.43;;
6467;SDS011;3267;48.794;9.928;2024-03-08T06:23:51;16.53;;;11.17;;
6467;SDS011;3267;48.794;9.928;2024-03-08T06:26:17;4.50;;;3.60;;
6467;SDS011;3267;48.794;9.928;2024-03-08T06:28:43;14.27;;;9.60;;
6467;SDS011;3267;48.794;9.928;2024-03-08T06:31:09;14.23;;;10.17;;
6467;SDS011;3267;48.794;9.928;2024-03-08T06:33:36;13.23;;;11.40;;
6467;SDS011;3267;48.794;9.928;2024-03-08T06:36:02;14.20;;;10.57;;
6467;SDS011;3267;48.794;9.928;2024-03-08T06:38:28;13.70;;;9.23;;
6467;SDS011;3267;48.794;9.928;2024-03-08T06:40:55;12.40;;;8.33;;
6467;SDS011;3267;48.794;9.928;2024-03-08T06:43:21;4.07;;;3.70;;
6467;SDS011;3267;48.794;9.928;2024-03-08T06:45:50;10.10;;;6.00;;
6467;SDS011;3267;48.794;9.928;2024-03-08T06:48:17;17.97;;;11.13;;
6467;SDS011;3267;48.794;9.928;2024-03-08T06:50:46;14.97;;;11.27;;
6467;SDS011;3267;48.794;9.928;2024-03-08T06:53:14;9.70;;;7.53;;
6467;SDS011;3267;48.794;9.928;2024-03-08T06:55:42;14.10;;;9.33;;
6467;SDS011;3267;48.794;9.928;2024-03-08T06:58:09;15.03;;;10.40;;
6467;SDS011;3267;48.794;9.928;2024-03-08T07:00:36;14.33;;;10.27;;
6467;SDS011;3267;48.794;9.928;2024-03-08T07:03:02;6.67;;;5.10;;
6467;SDS011;3267;48.794;9.928;2024-03-08T07:05:29;6.87;;;5.27;;
6467;SDS011;3267;48.794;9.928;2024-03-08T07:07:55;13.33;;;9.90;;
6467;SDS011;3267;48.794;9.928;2024-03-08T07:10:21;15.17;;;10.70;;
6467;SDS011;3267;48.794;9.928;2024-03-08T07:12:52;12.90;;;10.30;;
6467;SDS011;3267;48.794;9.928;2024-03-08T07:15:18;12.77;;;8.80;;
6467;SDS011;3267;48.794;9.928;2024-03-08T07:17:45;14.30;;;10.73;;
6467;SDS011;3267;48.794;9.928;2024-03-08T07:20:12;5.40;;;3.53;;
6467;SDS011;3267;48.794;9.928;2024-03-08T07:22:39;14.30;;;10.77;;
6467;SDS011;3267;48.794;9.928;2024-03-08T07:25:05;16.00;;;11.23;;
6467;SDS011;3267;48.794;9.928;2024-03-08T07:27:50;15.67;;;10.53;;
6467;SDS011;3267;48.794;9.928;2024-03-08T07:30:20;14.23;;;11.07;;
6467;SDS011;3267;48.794;9.928;2024-03-08T07:33:05;13.67;;;10.07;;
6467;SDS011;3267;48.794;9.928;2024-03-08T07:35:32;15.93;;;10.47;;
6467;SDS011;3267;48.794;9.928;2024-03-08T07:38:07;15.63;;;10.70;;
6467;SDS011;3267;48.794;9.928;2024-03-08T07:40:38;13.23;;;10.20;;
6467;SDS011;3267;48.794;9.928;2024-03-08T07:43:08;16.80;;;10.63;;
6467;SDS011;3267;48.794;9.928;2024-03-08T07:45:35;15.23;;;10.33;;
6467;SDS011;3267;48.794;9.928;2024-03-08T07:48:02;17.33;;;11.37;;
6467;SDS011;3267;48.794;9.928;2024-03-08T07:50:28;15.17;;;10.13;;
6467;SDS011;3267;48.794;9.928;2024-03-08T07:52:54;16.43;;;11.17;;
6467;SDS011;3267;48.794;9.928;2024-03-08T07:55:20;16.83;;;9.67;;
6467;SDS011;3267;48.794;9.928;2024-03-08T07:57:49;12.03;;;7.37;;
6467;SDS011;3267;48.794;9.928;2024-03-08T08:00:15;5.70;;;3.00;;
6467;SDS011;3267;48.794;9.928;2024-03-08T08:02:46;14.50;;;8.20;;
6467;SDS011;3267;48.794;9.928;2024-03-08T08:05:12;16.33;;;11.37;;
6467;SDS011;3267;48.794;9.928;2024-03-08T08:07:38;20.00;;;12.10;;
6467;SDS011;3267;48.794;9.928;2024-03-08T08:10:06;18.40;;;10.90;;
6467;SDS011;3267;48.794;9.928;2024-03-08T08:12:32;22.93;;;15.20;;
6467;SDS011;3267;48.794;9.928;2024-03-08T08:14:59;17.20;;;11.93;;
6467;SDS011;3267;48.794;9.928;2024-03-08T08:17:25;17.57;;;11.90;;
6467;SDS011;3267;48.794;9.928;2024-03-08T08:19:51;16.00;;;11.30;;
6467;SDS011;3267;48.794;9.928;2024-03-08T08:22:17;22.50;;;14.00;;
6467;SDS011;3267;48.794;9.928;2024-03-08T08:24:43;2.73;;;2.23;;
6467;SDS011;3267;48.794;9.928;2024-03-08T08:27:09;18.90;;;13.20;;
6467;SDS011;3267;48.794;9.928;2024-03-08T08:29:37;16.23;;;11.07;;
6467;SDS011;3267;48.794;9.928;2024-03-08T08:32:03;18.27;;;11.90;;
6467;SDS011;3267;48.794;9.928;2024-03-08T08:34:29;13.60;;;8.50;;
6467;SDS011;3267;48.794;9.928;2024-03-08T08:36:56;18.53;;;11.83;;
6467;SDS011;3267;48.794;9.928;2024-03-08T08:39:22;8.83;;;6.20;;
6467;SDS011;3267;48.794;9.928;2024-03-08T08:41:48;4.07;;;3.17;;
6467;SDS011;3267;48.794;9.928;2024-03-08T08:44:14;17.67;;;11.30;;
6467;SDS011;3267;48.794;9.928;2024-03-08T08:46:40;17.77;;;11.93;;
6467;SDS011;3267;48.794;9.928;2024-03-08T08:49:07;19.90;;;11.97;;
6467;SDS011;3267;48.794;9.928;2024-03-08T08:51:36;16.80;;;12.37;;
6467;SDS011;3267;48.794;9.928;2024-03-08T08:54:02;17.17;;;12.10;;
6467;SDS011;3267;48.794;9.928;2024-03-08T08:56:27;19.47;;;11.83;;
6467;SDS011;3267;48.794;9.928;2024-03-08T08:58:54;17.93;;;11.80;;
6467;SDS011;3267;48.794;9.928;2024-03-08T09:01:20;16.23;;;11.10;;
6467;SDS011;3267;48.794;9.928;2024-03-08T09:03:45;6.43;;;3.27;;
6467;SDS011;3267;48.794;9.928;2024-03-08T09:06:12;18.17;;;11.93;;
6467;SDS011;3267;48.794;9.928;2024-03-08T09:08:41;17.73;;;12.17;;
6467;SDS011;3267;48.794;9.928;2024-03-08T09:11:07;17.10;;;10.73;;
6467;SDS011;3267;48.794;9.928;2024-03-08T09:13:33;19.03;;;13.33;;
6467;SDS011;3267;48.794;9.928;2024-03-08T09:16:04;13.87;;;9.53;;
6467;SDS011;3267;48.794;9.928;2024-03-08T09:18:31;20.30;;;12.63;;
6467;SDS011;3267;48.794;9.928;2024-03-08T09:21:00;18.87;;;12.50;;
6467;SDS011;3267;48.794;9.928;2024-03-08T09:23:26;20.17;;;13.30;;
6467;SDS011;3267;48.794;9.928;2024-03-08T09:25:58;20.33;;;13.00;;
6467;SDS011;3267;48.794;9.928;2024-03-08T09:28:24;16.43;;;9.63;;
6467;SDS011;3267;48.794;9.928;2024-03-08T09:30:50;17.83;;;12.30;;
6467;SDS011;3267;48.794;9.928;2024-03-08T09:33:16;21.33;;;12.97;;
6467;SDS011;3267;48.794;9.928;2024-03-08T09:35:47;17.63;;;11.57;;
6467;SDS011;3267;48.794;9.928;2024-03-08T09:38:13;20.10;;;13.10;;
6467;SDS011;3267;48.794;9.928;2024-03-08T09:40:43;15.63;;;9.97;;
6467;SDS011;3267;48.794;9.928;2024-03-08T09:43:09;21.17;;;13.97;;
6467;SDS011;3267;48.794;9.928;2024-03-08T09:45:37;19.43;;;13.20;;
6467;SDS011;3267;48.794;9.928;2024-03-08T09:48:15;20.33;;;13.20;;
6467;SDS011;3267;48.794;9.928;2024-03-08T09:50:42;19.73;;;11.73;;
6467;SDS011;3267;48.794;9.928;2024-03-08T09:53:09;7.97;;;4.63;;
6467;SDS011;3267;48.794;9.928;2024-03-08T09:55:37;20.53;;;11.57;;
6467;SDS011;3267;48.794;9.928;2024-03-08T09:58:06;10.93;;;7.17;;
6467;SDS011;3267;48.794;9.928;2024-03-08T10:00:55;6.13;;;4.90;;
6467;SDS011;3267;48.794;9.928;2024-03-08T10:03:27;18.73;;;13.17;;
6467;SDS011;3267;48.794;9.928;2024-03-08T10:05:53;16.53;;;12.30;;
6467;SDS011;3267;48.794;9.928;2024-03-08T10:08:29;15.60;;;10.40;;
6467;SDS011;3267;48.794;9.928;2024-03-08T10:10:55;20.13;;;13.37;;
6467;SDS011;3267;48.794;9.928;2024-03-08T10:13:23;18.10;;;12.73;;
6467;SDS011;3267;48.794;9.928;2024-03-08T10:15:51;18.10;;;13.03;;
6467;SDS011;3267;48.794;9.928;2024-03-08T10:18:17;18.77;;;12.17;;
6467;SDS011;3267;48.794;9.928;2024-03-08T10:20:43;21.57;;;12.50;;
6467;SDS011;3267;48.794;9.928;2024-03-08T10:23:09;19.40;;;12.38;;
6467;SDS011;3267;48.794;9.928;2024-03-08T10:25:35;17.92;;;12.45;;
6467;SDS011;3267;48.794;9.928;2024-03-08T10:28:04;18.27;;;12.93;;
6467;SDS011;3267;48.794;9.928;2024-03-08T10:30:31;19.55;;;12.05;;
6467;SDS011;3267;48.794;9.928;2024-03-08T10:32:57;19.40;;;12.95;;
6467;SDS011;3267;48.794;9.928;2024-03-08T10:35:26;16.45;;;11.75;;
6467;SDS011;3267;48.794;9.928;2024-03-08T10:38:01;25.23;;;13.80;;
6467;SDS011;3267;48.794;9.928;2024-03-08T10:43:52;17.38;;;11.57;;
6467;SDS011;3267;48.794;9.928;2024-03-08T10:50:19;10.90;;;7.07;;
6467;SDS011;3267;48.794;9.928;2024-03-08T10:53:08;19.98;;;11.07;;
6467;SDS011;3267;48.794;9.928;2024-03-08T10:55:59;18.58;;;12.27;;
6467;SDS011;3267;48.794;9.928;2024-03-08T10:58:28;17.05;;;9.95;;
6467;SDS011;3267;48.794;9.928;2024-03-08T11:01:32;18.73;;;12.43;;
6467;SDS011;3267;48.794;9.928;2024-03-08T11:03:58;14.93;;;10.18;;
6467;SDS011;3267;48.794;9.928;2024-03-08T11:09:08;18.60;;;12.75;;
6467;SDS011;3267;48.794;9.928;2024-03-08T11:11:52;18.00;;;13.15;;
6467;SDS011;3267;48.794;9.928;2024-03-08T11:14:42;15.27;;;12.52;;
6467;SDS011;3267;48.794;9.928;2024-03-08T11:17:09;17.42;;;12.93;;
6467;SDS011;3267;48.794;9.928;2024-03-08T11:19:35;17.63;;;10.98;;
6467;SDS011;3267;48.794;9.928;2024-03-08T11:22:05;13.98;;;9.73;;
6467;SDS011;3267;48.794;9.928;2024-03-08T11:24:36;3.70;;;3.38;;
6467;SDS011;3267;48.794;9.928;2024-03-08T11:27:06;16.48;;;11.98;;
6467;SDS011;3267;48.794;9.928;2024-03-08T11:29:33;17.70;;;12.15;;
6467;SDS011;3267;48.794;9.928;2024-03-08T11:34:40;16.75;;;12.60;;
6467;SDS011;3267;48.794;9.928;2024-03-08T11:37:21;15.85;;;12.13;;
6467;SDS011;3267;48.794;9.928;2024-03-08T11:39:47;14.48;;;11.98;;
6467;SDS011;3267;48.794;9.928;2024-03-08T11:42:14;13.52;;;9.57;;
6467;SDS011;3267;48.794;9.928;2024-03-08T11:44:42;13.75;;;9.75;;
6467;SDS011;3267;48.794;9.928;2024-03-08T11:47:12;15.95;;;12.57;;
6467;SDS011;3267;48.794;9.928;2024-03-08T11:49:39;16.65;;;11.65;;
6467;SDS011;3267;48.794;9.928;2024-03-08T11:52:13;19.98;;;12.60;;
6467;SDS011;3267;48.794;9.928;2024-03-08T11:54:43;16.75;;;12.73;;
6467;SDS011;3267;48.794;9.928;2024-03-08T11:57:23;13.18;;;10.02;;
6467;SDS011;3267;48.794;9.928;2024-03-08T11:59:49;15.60;;;12.27;;
6467;SDS011;3267;48.794;9.928;2024-03-08T12:02:16;14.15;;;7.45;;
6467;SDS011;3267;48.794;9.928;2024-03-08T12:04:44;16.67;;;13.07;;
6467;SDS011;3267;48.794;9.928;2024-03-08T12:07:11;15.52;;;11.88;;
6467;SDS011;3267;48.794;9.928;2024-03-08T12:09:40;19.33;;;13.27;;
6467;SDS011;3267;48.794;9.928;2024-03-08T12:12:06;15.95;;;10.38;;
6467;SDS011;3267;48.794;9.928;2024-03-08T12:14:33;19.15;;;13.73;;
6467;SDS011;3267;48.794;9.928;2024-03-08T12:16:59;17.75;;;12.77;;
6467;SDS011;3267;48.794;9.928;2024-03-08T12:19:28;17.70;;;11.88;;
6467;SDS011;3267;48.794;9.928;2024-03-08T12:21:54;15.60;;;11.95;;
6467;SDS011;3267;48.794;9.928;2024-03-08T12:24:20;20.35;;;12.90;;
6467;SDS011;3267;48.794;9.928;2024-03-08T12:26:47;16.42;;;12.75;;
6467;SDS011;3267;48.794;9.928;2024-03-08T12:29:14;14.80;;;10.73;;
6467;SDS011;3267;48.794;9.928;2024-03-08T12:31:41;15.45;;;11.10;;
6467;SDS011;3267;48.794;9.928;2024-03-08T12:34:07;15.93;;;12.07;;
6467;SDS011;3267;48.794;9.928;2024-03-08T12:36:35;17.98;;;11.90;;
6467;SDS011;3267;48.794;9.928;2024-03-08T12:39:04;19.85;;;10.80;;
6467;SDS011;3267;48.794;9.928;2024-03-08T12:41:38;14.80;;;11.20;;
6467;SDS011;3267;48.794;9.928;2024-03-08T12:44:04;14.98;;;11.65;;
6467;SDS011;3267;48.794;9.928;2024-03-08T12:46:32;18.33;;;12.85;;
6467;SDS011;3267;48.794;9.928;2024-03-08T12:49:00;16.80;;;11.30;;
6467;SDS011;3267;48.794;9.928;2024-03-08T12:51:25;13.63;;;11.30;;
6467;SDS011;3267;48.794;9.928;2024-03-08T12:53:51;14.57;;;10.05;;
6467;SDS011;3267;48.794;9.928;2024-03-08T12:56:42;18.40;;;12.63;;
6467;SDS011;3267;48.794;9.928;2024-03-08T12:59:07;13.13;;;9.63;;
6467;SDS011;3267;48.794;9.928;2024-03-08T13:01:33;16.15;;;12.02;;
6467;SDS011;3267;48.794;9.928;2024-03-08T13:04:02;14.18;;;11.30;;
6467;SDS011;3267;48.794;9.928;2024-03-08T13:06:29;15.25;;;11.32;;
6467;SDS011;3267;48.794;9.928;2024-03-08T13:08:56;14.23;;;10.43;;
6467;SDS011;3267;48.794;9.928;2024-03-08T13:11:23;15.68;;;12.15;;
6467;SDS011;3267;48.794;9.928;2024-03-08T13:13:49;16.55;;;12.30;;
6467;SDS011;3267;48.794;9.928;2024-03-08T13:16:16;14.55;;;10.95;;
6467;SDS011;3267;48.794;9.928;2024-03-08T13:18:44;17.15;;;11.77;;
6467;SDS011;3267;48.794;9.928;2024-03-08T13:21:10;16.42;;;11.18;;
6467;SDS011;3267;48.794;9.928;2024-03-08T13:23:39;15.00;;;11.30;;
6467;SDS011;3267;48.794;9.928;2024-03-08T13:26:06;19.00;;;11.90;;
6467;SDS011;3267;48.794;9.928;2024-03-08T13:28:33;13.75;;;10.02;;
6467;SDS011;3267;48.794;9.928;2024-03-08T13:31:05;13.35;;;10.18;;
6467;SDS011;3267;48.794;9.928;2024-03-08T13:33:35;12.35;;;10.00;;
6467;SDS011;3267;48.794;9.928;2024-03-08T13:36:08;12.30;;;9.60;;
6467;SDS011;3267;48.794;9.928;2024-03-08T13:38:43;13.73;;;10.68;;
6467;SDS011;3267;48.794;9.928;2024-03-08T13:41:10;12.95;;;10.30;;
6467;SDS011;3267;48.794;9.928;2024-03-08T13:43:37;4.32;;;3.20;;
6467;SDS011;3267;48.794;9.928;2024-03-08T13:46:03;12.68;;;10.13;;
6467;SDS011;3267;48.794;9.928;2024-03-08T13:48:29;20.98;;;10.98;;
6467;SDS011;3267;48.794;9.928;2024-03-08T13:50:56;16.35;;;10.25;;
6467;SDS011;3267;48.794;9.928;2024-03-08T13:53:22;16.17;;;10.13;;
6467;SDS011;3267;48.794;9.928;2024-03-08T13:55:49;17.25;;;10.70;;
6467;SDS011;3267;48.794;9.928;2024-03-08T13:58:15;11.77;;;9.57;;
6467;SDS011;3267;48.794;9.928;2024-03-08T14:00:41;12.73;;;10.88;;
6467;SDS011;3267;48.794;9.928;2024-03-08T14:03:11;12.07;;;9.32;;
6467;SDS011;3267;48.794;9.928;2024-03-08T14:05:40;13.23;;;11.02;;
6467;SDS011;3267;48.794;9.928;2024-03-08T14:08:07;15.20;;;10.75;;
6467;SDS011;3267;48.794;9.928;2024-03-08T14:10:34;11.93;;;9.25;;
6467;SDS011;3267;48.794;9.928;2024-03-08T14:13:02;14.25;;;9.85;;
6467;SDS011;3267;48.794;9.928;2024-03-08T14:15:30;12.95;;;9.32;;
6467;SDS011;3267;48.794;9.928;2024-03-08T14:17:56;14.63;;;10.10;;
6467;SDS011;3267;48.794;9.928;2024-03-08T14:20:22;15.85;;;10.02;;
6467;SDS011;3267;48.794;9.928;2024-03-08T14:22:52;11.75;;;9.00;;
6467;SDS011;3267;48.794;9.928;2024-03-08T14:25:21;10.70;;;8.73;;
6467;SDS011;3267;48.794;9.928;2024-03-08T14:27:49;15.13;;;10.80;;
6467;SDS011;3267;48.794;9.928;2024-03-08T14:30:18;15.27;;;9.70;;
6467;SDS011;3267;48.794;9.928;2024-03-08T14:33:07;13.23;;;9.65;;
6467;SDS011;3267;48.794;9.928;2024-03-08T14:35:36;17.48;;;9.60;;
6467;SDS011;3267;48.794;9.928;2024-03-08T14:38:03;12.50;;;8.73;;
6467;SDS011;3267;48.794;9.928;2024-03-08T14:40:29;10.82;;;8.65;;
6467;SDS011;3267;48.794;9.928;2024-03-08T14:42:55;16.27;;;9.73;;
6467;SDS011;3267;48.794;9.928;2024-03-08T14:45:22;11.68;;;8.77;;
6467;SDS011;3267;48.794;9.928;2024-03-08T14:47:49;11.73;;;8.88;;
6467;SDS011;3267;48.794;9.928;2024-03-08T14:50:19;12.35;;;9.57;;
6467;SDS011;3267;48.794;9.928;2024-03-08T14:52:45;11.95;;;9.07;;
6467;SDS011;3267;48.794;9.928;2024-03-08T14:55:22;10.30;;;8.32;;
6467;SDS011;3267;48.794;9.928;2024-03-08T14:57:51;12.45;;;9.85;;
6467;SDS011;3267;48.794;9.928;2024-03-08T15:00:18;12.30;;;9.60;;
6467;SDS011;3267;48.794;9.928;2024-03-08T15:03:00;11.95;;;8.55;;
6467;SDS011;3267;48.794;9.928;2024-03-08T15:05:27;11.35;;;8.95;;
6467;SDS011;3267;48.794;9.928;2024-03-08T15:07:53;12.95;;;9.00;;
6467;SDS011;3267;48.794;9.928;2024-03-08T15:10:20;10.73;;;9.23;;
6467;SDS011;3267;48.794;9.928;2024-03-08T15:12:49;12.02;;;8.95;;
6467;SDS011;3267;48.794;9.928;2024-03-08T15:15:17;11.75;;;9.32;;
6467;SDS011;3267;48.794;9.928;2024-03-08T15:17:44;11.50;;;9.07;;
6467;SDS011;3267;48.794;9.928;2024-03-08T15:20:12;10.40;;;8.43;;
6467;SDS011;3267;48.794;9.928;2024-03-08T15:22:53;9.77;;;7.38;;
6467;SDS011;3267;48.794;9.928;2024-03-08T15:25:20;11.02;;;7.68;;
6467;SDS011;3267;48.794;9.928;2024-03-08T15:27:53;11.15;;;8.27;;
6467;SDS011;3267;48.794;9.928;2024-03-08T15:30:23;10.35;;;8.13;;
6467;SDS011;3267;48.794;9.928;2024-03-08T15:32:51;13.23;;;8.45;;
6467;SDS011;3267;48.794;9.928;2024-03-08T15:35:25;11.75;;;8.80;;
6467;SDS011;3267;48.794;9.928;2024-03-08T15:37:54;11.77;;;8.70;;
6467;SDS011;3267;48.794;9.928;2024-03-08T15:40:22;10.05;;;7.32;;
6467;SDS011;3267;48.794;9.928;2024-03-08T15:45:19;11.45;;;7.63;;
6467;SDS011;3267;48.794;9.928;2024-03-08T15:47:45;8.90;;;7.22;;
6467;SDS011;3267;48.794;9.928;2024-03-08T15:50:11;10.02;;;7.95;;
6467;SDS011;3267;48.794;9.928;2024-03-08T15:52:46;10.82;;;8.35;;
6467;SDS011;3267;48.794;9.928;2024-03-08T15:55:15;9.90;;;8.63;;
6467;SDS011;3267;48.794;9.928;2024-03-08T15:57:48;12.27;;;8.32;;
6467;SDS011;3267;48.794;9.928;2024-03-08T16:00:17;10.05;;;8.07;;
6467;SDS011;3267;48.794;9.928;2024-03-08T16:02:58;11.98;;;8.60;;
6467;SDS011;3267;48.794;9.928;2024-03-08T16:05:25;11.73;;;8.40;;
6467;SDS011;3267;48.794;9.928;2024-03-08T16:07:52;12.32;;;9.55;;
6467;SDS011;3267;48.794;9.928;2024-03-08T16:10:18;12.40;;;9.18;;
6467;SDS011;3267;48.794;9.928;2024-03-08T16:12:44;12.57;;;9.20;;
6467;SDS011;3267;48.794;9.928;2024-03-08T16:15:10;13.68;;;8.20;;
6467;SDS011;3267;48.794;9.928;2024-03-08T16:17:36;9.98;;;8.00;;
6467;SDS011;3267;48.794;9.928;2024-03-08T16:20:01;12.27;;;7.75;;
6467;SDS011;3267;48.794;9.928;2024-03-08T16:22:29;9.80;;;7.88;;
6467;SDS011;3267;48.794;9.928;2024-03-08T16:24:55;9.55;;;7.65;;
6467;SDS011;3267;48.794;9.928;2024-03-08T16:27:22;10.25;;;7.18;;
6467;SDS011;3267;48.794;9.928;2024-03-08T16:29:48;12.48;;;7.70;;
6467;SDS011;3267;48.794;9.928;2024-03-08T16:32:17;9.05;;;7.75;;
6467;SDS011;3267;48.794;9.928;2024-03-08T16:34:45;16.63;;;8.52;;
6467;SDS011;3267;48.794;9.928;2024-03-08T16:37:11;9.68;;;7.60;;
6467;SDS011;3267;48.794;9.928;2024-03-08T16:39:36;9.50;;;7.47;;
6467;SDS011;3267;48.794;9.928;2024-03-08T16:42:02;11.43;;;8.77;;
6467;SDS011;3267;48.794;9.928;2024-03-08T16:44:30;10.15;;;8.30;;
6467;SDS011;3267;48.794;9.928;2024-03-08T16:46:58;10.25;;;7.32;;
6467;SDS011;3267;48.794;9.928;2024-03-08T16:49:25;10.75;;;8.40;;
6467;SDS011;3267;48.794;9.928;2024-03-08T16:51:50;11.35;;;7.95;;
6467;SDS011;3267;48.794;9.928;2024-03-08T16:54:16;11.68;;;8.77;;
6467;SDS011;3267;48.794;9.928;2024-03-08T16:56:52;10.63;;;8.10;;
6467;SDS011;3267;48.794;9.928;2024-03-08T16:59:53;10.43;;;8.07;;
6467;SDS011;3267;48.794;9.928;2024-03-08T17:06:15;8.77;;;7.88;;
6467;SDS011;3267;48.794;9.928;2024-03-08T17:09:00;12.15;;;7.75;;
6467;SDS011;3267;48.794;9.928;2024-03-08T17:23:09;5.18;;;3.70;;
6467;SDS011;3267;48.794;9.928;2024-03-08T17:26:30;8.82;;;7.55;;
6467;SDS011;3267;48.794;9.928;2024-03-08T17:29:26;8.70;;;6.03;;
6467;SDS011;3267;48.794;9.928;2024-03-08T17:32:04;8.85;;;7.00;;
6467;SDS011;3267;48.794;9.928;2024-03-08T17:35:09;6.40;;;5.53;;
6467;SDS011;3267;48.794;9.928;2024-03-08T17:38:11;8.77;;;5.97;;
6467;SDS011;3267;48.794;9.928;2024-03-08T17:40:37;9.15;;;6.30;;
6467;SDS011;3267;48.794;9.928;2024-03-08T17:46:00;8.13;;;6.82;;
6467;SDS011;3267;48.794;9.928;2024-03-08T17:48:52;5.57;;;4.38;;
6467;SDS011;3267;48.794;9.928;2024-03-08T17:51:38;7.50;;;6.13;;
6467;SDS011;3267;48.794;9.928;2024-03-08T17:54:10;8.05;;;5.75;;
6467;SDS011;3267;48.794;9.928;2024-03-08T17:56:41;10.68;;;6.10;;
6467;SDS011;3267;48.794;9.928;2024-03-08T17:59:11;8.23;;;5.90;;
6467;SDS011;3267;48.794;9.928;2024-03-08T18:01:37;7.20;;;5.38;;
6467;SDS011;3267;48.794;9.928;2024-03-08T18:04:05;7.45;;;5.68;;
6467;SDS011;3267;48.794;9.928;2024-03-08T18:06:34;9.43;;;6.43;;
6467;SDS011;3267;48.794;9.928;2024-03-08T18:09:02;9.52;;;6.32;;
6467;SDS011;3267;48.794;9.928;2024-03-08T18:11:31;5.88;;;5.28;;
6467;SDS011;3267;48.794;9.928;2024-03-08T18:13:59;6.70;;;5.70;;
6467;SDS011;3267;48.794;9.928;2024-03-08T18:16:25;6.35;;;4.90;;
6467;SDS011;3267;48.794;9.928;2024-03-08T18:18:51;7.22;;;5.90;;
6467;SDS011;3267;48.794;9.928;2024-03-08T18:21:18;6.25;;;4.35;;
6467;SDS011;3267;48.794;9.928;2024-03-08T18:23:43;6.20;;;5.10;;
6467;SDS011;3267;48.794;9.928;2024-03-08T18:26:10;5.93;;;5.10;;
6467;SDS011;3267;48.794;9.928;2024-03-08T18:28:36;6.40;;;5.32;;
6467;SDS011;3267;48.794;9.928;2024-03-08T18:31:03;6.70;;;5.70;;
6467;SDS011;3267;48.794;9.928;2024-03-08T18:33:29;9.40;;;5.43;;
6467;SDS011;3267;48.794;9.928;2024-03-08T18:35:57;8.13;;;5.57;;
6467;SDS011;3267;48.794;9.928;2024-03-08T18:38:24;11.05;;;5.55;;
6467;SDS011;3267;48.794;9.928;2024-03-08T18:40:51;8.45;;;5.70;;
6467;SDS011;3267;48.794;9.928;2024-03-08T18:43:17;6.35;;;4.88;;
6467;SDS011;3267;48.794;9.928;2024-03-08T18:45:45;7.47;;;6.18;;
6467;SDS011;3267;48.794;9.928;2024-03-08T18:48:12;7.57;;;4.80;;
6467;SDS011;3267;48.794;9.928;2024-03-08T18:50:40;7.68;;;5.97;;
6467;SDS011;3267;48.794;9.928;2024-03-08T18:53:06;6.15;;;5.50;;
6467;SDS011;3267;48.794;9.928;2024-03-08T18:55:34;6.43;;;5.32;;
6467;SDS011;3267;48.794;9.928;2024-03-08T18:58:00;8.20;;;5.57;;
6467;SDS011;3267;48.794;9.928;2024-03-08T19:00:28;5.28;;;3.72;;
6467;SDS011;3267;48.794;9.928;2024-03-08T19:02:55;9.13;;;6.13;;
6467;SDS011;3267;48.794;9.928;2024-03-08T19:05:22;11.05;;;5.60;;
6467;SDS011;3267;48.794;9.928;2024-03-08T19:07:50;9.05;;;6.70;;
6467;SDS011;3267;48.794;9.928;2024-03-08T19:10:17;6.53;;;5.03;;
6467;SDS011;3267;48.794;9.928;2024-03-08T19:12:45;5.50;;;3.95;;
6467;SDS011;3267;48.794;9.928;2024-03-08T19:15:12;6.22;;;5.05;;
6467;SDS011;3267;48.794;9.928;2024-03-08T19:17:41;8.68;;;5.78;;
6467;SDS011;3267;48.794;9.928;2024-03-08T19:20:10;6.18;;;5.18;;
6467;SDS011;3267;48.794;9.928;2024-03-08T19:25:11;6.88;;;4.90;;
6467;SDS011;3267;48.794;9.928;2024-03-08T19:27:37;8.52;;;5.18;;
6467;SDS011;3267;48.794;9.928;2024-03-08T19:30:04;6.25;;;5.18;;
6467;SDS011;3267;48.794;9.928;2024-03-08T19:32:31;5.72;;;4.38;;
6467;SDS011;3267;48.794;9.928;2024-03-08T19:34:59;7.65;;;5.85;;
6467;SDS011;3267;48.794;9.928;2024-03-08T19:37:25;6.55;;;5.20;;
6467;SDS011;3267;48.794;9.928;2024-03-08T19:39:54;7.43;;;5.65;;
6467;SDS011;3267;48.794;9.928;2024-03-08T19:42:20;7.70;;;5.97;;
6467;SDS011;3267;48.794;9.928;2024-03-08T19:44:49;7.60;;;4.75;;
6467;SDS011;3267;48.794;9.928;2024-03-08T19:47:16;8.70;;;6.25;;
6467;SDS011;3267;48.794;9.928;2024-03-08T19:49:42;8.07;;;6.00;;
6467;SDS011;3267;48.794;9.928;2024-03-08T19:52:07;9.73;;;5.80;;
6467;SDS011;3267;48.794;9.928;2024-03-08T19:54:36;6.78;;;5.85;;
6467;SDS011;3267;48.794;9.928;2024-03-08T19:57:04;7.13;;;5.75;;
6467;SDS011;3267;48.794;9.928;2024-03-08T19:59:35;5.80;;;4.90;;
6467;SDS011;3267;48.794;9.928;2024-03-08T20:02:08;9.35;;;6.03;;
6467;SDS011;3267;48.794;9.928;2024-03-08T20:04:34;9.60;;;6.00;;
6467;SDS011;3267;48.794;9.928;2024-03-08T20:07:00;7.18;;;5.25;;
6467;SDS011;3267;48.794;9.928;2024-03-08T20:09:26;9.38;;;5.95;;
6467;SDS011;3267;48.794;9.928;2024-03-08T20:11:54;8.32;;;4.50;;
6467;SDS011;3267;48.794;9.928;2024-03-08T20:14:20;7.60;;;5.80;;
6467;SDS011;3267;48.794;9.928;2024-03-08T20:16:46;7.18;;;5.30;;
6467;SDS011;3267;48.794;9.928;2024-03-08T20:19:13;7.40;;;6.40;;
6467;SDS011;3267;48.794;9.928;2024-03-08T20:21:39;8.55;;;5.70;;
6467;SDS011;3267;48.794;9.928;2024-03-08T20:24:04;6.95;;;5.70;;
6467;SDS011;3267;48.794;9.928;2024-03-08T20:26:30;5.78;;;4.75;;
6467;SDS011;3267;48.794;9.928;2024-03-08T20:28:56;9.52;;;5.32;;
6467;SDS011;3267;48.794;9.928;2024-03-08T20:31:23;10.40;;;5.70;;
6467;SDS011;3267;48.794;9.928;2024-03-08T20:33:49;7.75;;;5.80;;
6467;SDS011;3267;48.794;9.928;2024-03-08T20:36:14;10.10;;;6.50;;
6467;SDS011;3267;48.794;9.928;2024-03-08T20:38:42;7.80;;;5.43;;
6467;SDS011;3267;48.794;9.928;2024-03-08T20:41:09;7.20;;;6.30;;
6467;SDS011;3267;48.794;9.928;2024-03-08T20:43:36;9.35;;;5.70;;
6467;SDS011;3267;48.794;9.928;2024-03-08T20:46:02;7.75;;;5.65;;
6467;SDS011;3267;48.794;9.928;2024-03-08T20:48:31;6.85;;;6.15;;
6467;SDS011;3267;48.794;9.928;2024-03-08T20:50:59;5.72;;;2.20;;
6467;SDS011;3267;48.794;9.928;2024-03-08T20:53:26;8.15;;;6.13;;
6467;SDS011;3267;48.794;9.928;2024-03-08T20:55:53;7.13;;;6.00;;
6467;SDS011;3267;48.794;9.928;2024-03-08T20:58:19;9.52;;;6.28;;
6467;SDS011;3267;48.794;9.928;2024-03-08T21:00:46;7.18;;;5.95;;
6467;SDS011;3267;48.794;9.928;2024-03-08T21:03:18;7.85;;;5.85;;